American Falls, ID

12:23 PM MDT on May 03, 2015 (GMT -0600)
The Hood | | Change Station
CLOSE
Current Station
Personal Weather Station
Location: Rockland, ID
Elevation: 4560 ft
Nearby Weather Stations

Elev 4560 ft 42.57 °N, 112.88 °W | Updated 4 minutes ago

Partly Cloudy
Partly Cloudy
74.1 °F
Feels Like 77 °F
N
6.3
Wind Variable Wind from South

Today
High -- | Low -- °F
--% Chance of Precip.
Yesterday
High -- | Low -- °F
Precip. -- in
6:23 AM 8:34 PM
Full, 100% visible
Pressure 29.83 in
Visibility 10.0 miles
Clouds Mostly Cloudy 9500 ft
Heat Index 77 °F
Dew Point 42 °F
Humidity 31%
Rainfall 0.00 in
Snow Depth Not available.
UV 5 out of 12
Pollen 9.70 out of 12
Air Quality Not available.
Flu Activity Sporadic
METAR KPIH 031753Z 15005KT 10SM BKN095 21/00 A2995 RMK AO2 SLP102 60000 T02060000 10222 20078 50003 $

More Conditions Fewer Conditions

Pressure 29.83 in
Visibility 10.0 miles
Clouds Mostly Cloudy 9500 ft
Heat Index 77 °F
Dew Point 42 °F
Humidity 31%
Rainfall 0.00 in
Snow Depth Not available.
UV 5 out of 12
Pollen 9.70 out of 12
Air Quality Not available.
Flu Activity Sporadic
METAR KPIH 031753Z 15005KT 10SM BKN095 21/00 A2995 RMK AO2 SLP102 60000 T02060000 10222 20078 50003 $

More Conditions Fewer Conditions

Nepal has a long way to go to dig out and rebuild from a devastating earthquake. We have teamed up with several charities and organizations to make contributing to the relief effort as easy as possible.
How you can help: Portlight Strategies | Red Cross

10-Day Weather Forecast

Almanac

Astronomy

May. 03, 2015 Rise Set
Actual Time
Civil Twilight
Nautical Twilight
Astronomical Twilight
Moon
Length of Visible Light
Length of Day
Tomorrow will be .
, % of the Moon is Illuminated

Today's Extremes

State Highs State Lows

Community

WunderPhotos

Upload Photos

1,818,305 photos uploaded!

WunderBlogs® & News

Nearby

Air Quality

  Air Quality AQ Index Pollutant
Not available.

Snow Depth

Station Depth Elevation

Earthquake Activity

City Distance Mag. Time & Date
Minimum magnitude displayed is 2.5.

Coastal Water Temperatures

Place Temperature

Stations

Nearby Weather Stations

Station Location Temp. Windchill Dew Point Humidity Wind Precip. Elev Updated Type